Time;durP1;ratioP1;P1;durP2;ratioP2;P2;SDS_P1;SDS_P2;PMS_P1;PMS_P2;Temp;Humidity;BMP_temperature;BMP_pressure;BME280_temperature;BME280_humidity;BME280_pressure;Samples;Min_cycle;Max_cycle;Signal;HPM_P1;HPM_P2
2023/01/28 00:01:27;;;;;;;6.70;4.97;;;;;;;0.93;93.49;98746.16;5031575;28;20316;-85
2023/01/28 00:03:55;;;;;;;6.80;4.67;;;;;;;0.91;94.04;98752.28;5031577;28;20216;-84
2023/01/28 00:06:21;;;;;;;7.27;4.80;;;;;;;0.85;95.02;98749.81;5031361;28;20607;-84
2023/01/28 00:08:48;;;;;;;6.70;5.10;;;;;;;0.88;95.62;98745.44;5031115;28;20244;-84
2023/01/28 00:11:15;;;;;;;7.33;5.00;;;;;;;0.86;95.74;98749.78;5031377;28;20207;-84
2023/01/28 00:13:42;;;;;;;8.33;5.03;;;;;;;0.88;96.34;98758.44;5031528;28;20209;-84
2023/01/28 00:16:09;;;;;;;6.83;5.07;;;;;;;0.84;96.74;98754.19;5031304;28;20703;-83
2023/01/28 00:18:36;;;;;;;6.07;4.23;;;;;;;0.79;97.34;98756.00;5031206;28;20221;-83
2023/01/28 00:21:06;;;;;;;6.17;4.80;;;;;;;0.80;97.71;98765.53;5031408;28;20213;-83
2023/01/28 00:23:34;;;;;;;5.63;4.37;;;;;;;0.86;97.04;98757.59;5031544;28;20240;-83
2023/01/28 00:26:02;;;;;;;8.03;4.70;;;;;;;0.85;96.67;98757.63;5031611;28;20235;-83
2023/01/28 00:28:29;;;;;;;7.23;4.50;;;;;;;0.85;96.61;98755.88;5031434;28;20610;-84
2023/01/28 00:30:55;;;;;;;6.43;4.47;;;;;;;0.88;96.69;98758.44;5031217;28;20328;-87
2023/01/28 00:33:22;;;;;;;8.30;5.00;;;;;;;0.83;96.98;98760.28;5031516;28;20236;-84
2023/01/28 00:35:57;;;;;;;5.57;4.50;;;;;;;0.84;96.22;98751.56;5031767;28;20232;-86
2023/01/28 00:38:25;;;;;;;6.30;4.57;;;;;;;0.91;95.31;98747.06;5032120;28;20241;-85
2023/01/28 00:40:51;;;;;;;5.73;4.57;;;;;;;0.93;94.57;98735.75;5031549;28;20213;-85
2023/01/28 00:43:18;;;;;;;7.10;4.67;;;;;;;0.92;94.19;98736.66;5032027;28;20554;-85
2023/01/28 00:45:45;;;;;;;6.80;4.83;;;;;;;0.90;94.50;98732.34;5031827;28;20208;-84
2023/01/28 00:48:11;;;;;;;6.53;4.73;;;;;;;0.85;94.58;98737.69;5031428;28;20248;-84
2023/01/28 00:50:39;;;;;;;6.47;4.13;;;;;;;0.93;93.82;98735.75;5031454;28;20208;-85
2023/01/28 00:53:05;;;;;;;5.40;4.67;;;;;;;0.85;94.26;98737.69;5032113;28;20215;-84
2023/01/28 00:55:33;;;;;;;6.00;4.33;;;;;;;0.91;94.24;98732.34;5032064;28;20243;-84
2023/01/28 00:58:00;;;;;;;5.40;4.30;;;;;;;0.97;94.04;98736.53;5031725;28;20239;-84
2023/01/28 01:00:26;;;;;;;5.57;4.23;;;;;;;0.94;93.49;98737.50;5031186;28;20592;-84
2023/01/28 01:02:53;;;;;;;7.37;3.90;;;;;;;0.99;93.06;98740.00;5031553;28;20255;-84
2023/01/28 01:05:19;;;;;;;5.53;4.00;;;;;;;1.01;93.10;98733.84;5031683;28;20224;-85
2023/01/28 01:07:46;;;;;;;5.33;3.97;;;;;;;0.88;93.63;98728.94;5035122;28;20241;-84
2023/01/28 01:10:15;;;;;;;5.47;4.00;;;;;;;0.94;94.33;98732.28;5034881;28;20209;-84
2023/01/28 01:12:45;;;;;;;5.67;4.00;;;;;;;0.92;94.09;98728.84;5035179;28;20251;-84
2023/01/28 01:15:12;;;;;;;6.47;3.77;;;;;;;0.97;94.66;98742.63;5035169;28;20233;-84
2023/01/28 01:17:40;;;;;;;4.40;3.43;;;;;;;0.99;94.68;98746.03;5035443;28;20615;-84
2023/01/28 01:20:11;;;;;;;5.20;3.60;;;;;;;1.04;94.24;98744.19;5035188;28;20671;-84
2023/01/28 01:22:38;;;;;;;4.70;3.17;;;;;;;0.98;94.41;98743.47;5035259;28;20216;-84
2023/01/28 01:25:06;;;;;;;4.60;3.80;;;;;;;1.01;94.46;98746.00;5035044;28;20212;-84
2023/01/28 01:27:33;;;;;;;5.47;3.57;;;;;;;1.04;94.07;98754.59;5034982;28;20228;-85
2023/01/28 01:30:01;;;;;;;4.57;3.43;;;;;;;0.98;94.35;98749.53;5035112;28;20212;-84
2023/01/28 01:32:30;;;;;;;4.77;3.67;;;;;;;0.95;94.56;98744.41;5035137;28;20235;-84
2023/01/28 01:34:57;;;;;;;4.50;3.40;;;;;;;0.98;94.36;98746.91;5036612;28;20236;-84
2023/01/28 01:37:23;;;;;;;7.13;3.87;;;;;;;1.02;94.71;98747.72;5042466;28;20548;-84
2023/01/28 01:39:50;;;;;;;5.73;4.23;;;;;;;1.05;93.78;98751.09;5037828;28;20674;-85
2023/01/28 01:42:16;;;;;;;4.93;3.43;;;;;;;1.03;94.13;98745.09;5034166;28;20204;-84
2023/01/28 01:44:56;;;;;;;4.47;3.13;;;;;;;1.04;93.89;98754.59;5034369;28;20205;-85
2023/01/28 01:47:29;;;;;;;5.30;3.67;;;;;;;1.03;93.83;98758.09;5034443;28;20229;-84
2023/01/28 01:49:56;;;;;;;4.57;3.50;;;;;;;1.07;94.03;98751.94;5034887;28;20239;-84
2023/01/28 01:52:28;;;;;;;4.77;3.53;;;;;;;1.06;94.21;98763.22;5034948;28;20254;-84
2023/01/28 01:54:57;;;;;;;4.90;3.70;;;;;;;1.04;94.76;98757.19;5045699;28;20232;-83
2023/01/28 01:57:29;;;;;;;5.03;3.77;;;;;;;1.08;94.43;98760.59;5052865;28;20228;-83
2023/01/28 02:00:03;;;;;;;5.23;3.40;;;;;;;1.06;94.09;98765.81;5051587;28;20223;-83
2023/01/28 02:02:34;;;;;;;5.70;3.50;;;;;;;1.08;93.25;98761.47;5050960;28;20212;-83
2023/01/28 02:05:01;;;;;;;4.93;3.57;;;;;;;1.16;93.01;98753.50;5052696;28;20189;-82
2023/01/28 02:07:27;;;;;;;4.67;3.50;;;;;;;1.09;93.38;98752.75;5053550;28;20229;-83
2023/01/28 02:09:54;;;;;;;4.93;3.80;;;;;;;1.05;93.70;98745.91;5052249;28;20222;-82
2023/01/28 02:12:24;;;;;;;4.93;3.40;;;;;;;1.09;93.52;98744.09;5052614;28;20219;-83
2023/01/28 02:14:54;;;;;;;4.93;3.20;;;;;;;1.04;93.50;98754.59;5055948;28;20236;-82
2023/01/28 02:17:21;;;;;;;3.87;3.20;;;;;;;1.06;94.12;98755.41;5055735;28;20217;-83
2023/01/28 02:19:56;;;;;;;5.07;3.73;;;;;;;1.07;94.56;98748.47;5048095;28;20749;-84
2023/01/28 02:22:59;;;;;;;5.00;3.30;;;;;;;1.11;94.06;98750.13;5034362;28;20215;-84
2023/01/28 02:25:48;;;;;;;5.60;3.67;;;;;;;1.22;92.80;98756.81;5017999;28;20210;-84
2023/01/28 02:28:27;;;;;;;4.53;3.63;;;;;;;1.08;93.54;98756.25;5031480;28;20232;-84
2023/01/28 02:30:58;;;;;;;4.30;3.63;;;;;;;1.10;94.06;98764.88;5033653;28;20192;-84
2023/01/28 02:33:31;;;;;;;4.47;3.37;;;;;;;1.11;94.34;98763.97;5034142;28;20193;-83
2023/01/28 02:36:07;;;;;;;4.70;3.73;;;;;;;1.03;94.51;98765.91;5034163;28;20223;-84
2023/01/28 02:38:38;;;;;;;4.60;3.33;;;;;;;1.02;95.24;98764.19;5033452;28;20606;-84
2023/01/28 02:41:11;;;;;;;4.60;3.47;;;;;;;0.96;95.27;98772.13;5033518;28;20213;-84
2023/01/28 02:43:41;;;;;;;4.67;3.33;;;;;;;0.99;95.49;98766.84;5033619;28;20220;-84
2023/01/28 02:49:20;;;;;;;4.23;3.00;;;;;;;0.98;95.66;98770.34;5001760;28;20310;-84
2023/01/28 02:51:57;;;;;;;4.13;3.07;;;;;;;0.96;96.23;98766.94;5032917;28;20216;-84
2023/01/28 02:54:35;;;;;;;5.40;3.80;;;;;;;1.01;95.80;98775.50;5033045;28;20212;-84
2023/01/28 02:57:15;;;;;;;4.97;3.60;;;;;;;0.92;96.38;98775.69;5032744;28;20219;-84
2023/01/28 02:59:51;;;;;;;5.07;3.50;;;;;;;0.95;96.39;98779.97;5032888;28;20212;-84
2023/01/28 03:02:23;;;;;;;4.77;3.33;;;;;;;0.98;96.58;98785.13;5033063;28;20217;-84
2023/01/28 03:04:56;;;;;;;4.03;3.60;;;;;;;1.03;96.98;98781.53;5032669;28;20227;-84
2023/01/28 03:07:26;;;;;;;5.93;3.97;;;;;;;1.03;96.81;98781.53;5032955;28;20239;-84
2023/01/28 03:09:57;;;;;;;5.23;3.57;;;;;;;1.00;97.22;98789.38;5032578;28;20215;-84
2023/01/28 03:37:32;;;;;;;6.17;4.50;;;;;;;0.93;99.78;98793.00;5031826;28;20254;-84
2023/01/28 03:40:03;;;;;;;7.40;5.37;;;;;;;0.98;99.16;98785.13;5031577;28;20765;-84
2023/01/28 03:42:31;;;;;;;7.30;5.17;;;;;;;0.89;99.77;98801.78;5031588;28;20212;-84
2023/01/28 03:44:57;;;;;;;7.97;5.30;;;;;;;0.92;100.00;98804.31;5031337;28;20215;-84
2023/01/28 03:47:27;;;;;;;7.57;5.63;;;;;;;0.97;100.00;98799.88;5031198;28;20228;-84
2023/01/28 03:49:56;;;;;;;9.20;6.10;;;;;;;1.05;100.00;98802.31;5031431;28;20580;-84
2023/01/28 03:52:25;;;;;;;8.77;5.97;;;;;;;1.02;100.00;98802.38;5031555;28;20215;-84
2023/01/28 03:54:52;;;;;;;8.10;6.00;;;;;;;1.01;100.00;98811.94;5031604;28;20634;-84
2023/01/28 03:57:20;;;;;;;7.30;5.67;;;;;;;0.94;100.00;98809.50;5031425;28;20334;-84
2023/01/28 03:59:48;;;;;;;8.87;6.17;;;;;;;0.97;100.00;98810.28;5031063;28;20208;-84
2023/01/28 04:02:16;;;;;;;9.23;6.57;;;;;;;0.93;100.00;98803.41;5031231;28;20216;-84
2023/01/28 04:04:43;;;;;;;8.17;6.40;;;;;;;0.87;100.00;98806.13;5031497;28;20212;-84
2023/01/28 04:07:13;;;;;;;9.27;6.43;;;;;;;0.91;100.00;98815.59;5031366;28;20219;-84
2023/01/28 04:09:39;;;;;;;8.70;6.47;;;;;;;0.91;100.00;98805.19;5030971;28;20216;-84
2023/01/28 04:12:06;;;;;;;9.37;6.73;;;;;;;0.95;100.00;98811.19;5031092;28;20212;-84
2023/01/28 04:14:33;;;;;;;10.57;6.60;;;;;;;0.94;100.00;98810.34;5031014;28;20215;-84
2023/01/28 04:17:00;;;;;;;8.57;6.60;;;;;;;0.89;100.00;98809.59;5031319;28;20216;-83
2023/01/28 04:19:27;;;;;;;8.60;5.97;;;;;;;0.89;100.00;98812.19;5031273;28;20212;-84
2023/01/28 04:21:55;;;;;;;9.07;6.73;;;;;;;0.84;100.00;98816.63;5031917;28;20218;-83
2023/01/28 04:24:22;;;;;;;8.37;6.30;;;;;;;0.84;100.00;98808.81;5031613;28;20286;-84
2023/01/28 04:26:49;;;;;;;8.20;6.63;;;;;;;0.85;100.00;98820.06;5031388;28;20215;-84
2023/01/28 04:29:15;;;;;;;8.27;5.83;;;;;;;0.83;100.00;98811.44;5031420;28;20609;-84
2023/01/28 04:31:42;;;;;;;9.53;6.67;;;;;;;0.85;100.00;98814.84;5031680;28;20215;-83
2023/01/28 04:34:09;;;;;;;8.43;5.70;;;;;;;0.87;100.00;98819.16;5031425;28;20705;-84
2023/01/28 04:36:35;;;;;;;7.97;5.90;;;;;;;0.84;100.00;98819.22;5031420;28;20231;-84
2023/01/28 04:39:04;;;;;;;8.27;6.00;;;;;;;0.84;100.00;98826.16;5031592;28;20235;-84
2023/01/28 04:41:30;;;;;;;8.60;6.00;;;;;;;0.86;100.00;98833.06;5033160;28;20209;-84
2023/01/28 04:43:56;;;;;;;8.30;6.17;;;;;;;0.85;100.00;98836.53;5035239;28;20208;-83
2023/01/28 04:46:23;;;;;;;9.30;5.97;;;;;;;0.88;100.00;98835.63;5035381;28;20569;-84
2023/01/28 04:48:49;;;;;;;8.57;5.97;;;;;;;0.91;100.00;98841.63;5038951;23;20237;-77
2023/01/28 04:51:16;;;;;;;8.27;6.30;;;;;;;0.95;100.00;98842.44;5014771;28;20220;-78
2023/01/28 04:53:42;;;;;;;9.17;5.97;;;;;;;0.97;100.00;98843.25;5014813;28;20603;-77
2023/01/28 04:56:10;;;;;;;9.13;6.33;;;;;;;0.93;100.00;98831.19;5015111;28;20233;-77
2023/01/28 04:58:37;;;;;;;9.40;6.17;;;;;;;0.94;100.00;98835.50;5015016;28;20229;-77
2023/01/28 05:01:03;;;;;;;7.83;6.10;;;;;;;0.99;100.00;98833.69;5014809;28;20216;-79
2023/01/28 05:03:30;;;;;;;9.00;6.47;;;;;;;1.03;100.00;98836.19;5014940;28;20217;-77
2023/01/28 05:05:56;;;;;;;10.60;6.70;;;;;;;1.03;100.00;98836.19;5014556;28;20225;-78
2023/01/28 05:08:23;;;;;;;10.40;7.63;;;;;;;1.04;100.00;98845.69;5014421;28;20232;-80
2023/01/28 05:10:49;;;;;;;9.80;7.27;;;;;;;1.02;100.00;98849.22;5014184;28;20205;-77
2023/01/28 05:13:17;;;;;;;9.13;6.47;;;;;;;1.01;100.00;98844.91;5014496;28;20212;-78
2023/01/28 05:15:44;;;;;;;11.50;7.30;;;;;;;1.02;100.00;98844.88;5014355;28;20258;-78
2023/01/28 05:18:10;;;;;;;11.90;7.20;;;;;;;0.97;100.00;98846.72;5014365;28;20234;-78
2023/01/28 05:20:36;;;;;;;10.20;7.20;;;;;;;0.97;100.00;98851.03;5014005;28;20232;-77
2023/01/28 05:23:03;;;;;;;8.90;7.23;;;;;;;1.02;100.00;98844.88;5014166;28;20209;-79
2023/01/28 05:25:29;;;;;;;11.60;7.70;;;;;;;0.99;100.00;98849.28;5019421;28;20197;-78
2023/01/28 05:27:56;;;;;;;10.87;7.33;;;;;;;0.97;100.00;98841.50;5034067;28;20229;-78
2023/01/28 05:30:24;;;;;;;10.17;7.30;;;;;;;0.96;100.00;98850.22;5033752;28;20209;-80
2023/01/28 05:32:55;;;;;;;9.33;7.00;;;;;;;0.97;100.00;98844.09;5034002;28;20209;-77
2023/01/28 05:35:21;;;;;;;10.00;6.73;;;;;;;0.98;100.00;98834.56;5033782;28;20251;-79
2023/01/28 05:37:48;;;;;;;9.53;7.00;;;;;;;0.93;100.00;98839.84;5033724;28;20307;-79
2023/01/28 05:40:14;;;;;;;8.13;6.17;;;;;;;0.89;100.00;98838.22;5033722;28;20209;-78
2023/01/28 05:42:41;;;;;;;9.27;6.90;;;;;;;0.83;100.00;98835.72;5033864;28;20212;-79
2023/01/28 05:45:09;;;;;;;8.50;6.03;;;;;;;0.87;100.00;98839.97;5033807;28;20219;-79
2023/01/28 05:47:37;;;;;;;8.80;6.67;;;;;;;0.90;100.00;98839.91;5033524;28;20217;-78
2023/01/28 05:50:03;;;;;;;8.37;5.83;;;;;;;1.01;100.00;98839.69;5033121;28;20216;-79
2023/01/28 05:52:30;;;;;;;8.20;6.33;;;;;;;0.97;100.00;98846.72;5033507;28;20220;-79
2023/01/28 05:54:56;;;;;;;8.30;6.03;;;;;;;0.94;100.00;98846.78;5033578;28;20280;-78
2023/01/28 05:57:23;;;;;;;8.83;6.00;;;;;;;0.99;100.00;98850.13;5033430;28;20247;-79
2023/01/28 05:59:49;;;;;;;8.43;5.87;;;;;;;0.98;100.00;98855.38;5033288;28;20598;-79
2023/01/28 06:02:16;;;;;;;8.33;5.90;;;;;;;0.93;100.00;98845.06;5033453;28;20213;-79
2023/01/28 06:04:43;;;;;;;8.27;5.53;;;;;;;0.95;100.00;98842.44;5033266;28;20699;-78
2023/01/28 06:07:12;;;;;;;9.93;6.73;;;;;;;1.01;100.00;98843.16;5033375;28;20205;-78
2023/01/28 06:09:38;;;;;;;9.57;6.30;;;;;;;1.09;100.00;98846.47;5033138;28;20267;-79
2023/01/28 06:12:05;;;;;;;9.57;6.43;;;;;;;1.02;100.00;98851.81;5033358;28;20578;-79
2023/01/28 06:14:32;;;;;;;8.20;6.20;;;;;;;1.05;100.00;98851.78;5033169;28;20204;-78
2023/01/28 06:16:58;;;;;;;8.70;6.30;;;;;;;1.03;100.00;98859.59;5033018;28;20240;-79
2023/01/28 06:19:25;;;;;;;9.00;6.50;;;;;;;0.99;100.00;98865.75;5032622;28;20259;-79
2023/01/28 06:21:52;;;;;;;9.67;6.43;;;;;;;1.04;100.00;98873.50;5032980;28;20725;-79
2023/01/28 06:24:19;;;;;;;9.67;6.43;;;;;;;1.14;100.00;98868.06;5033164;28;20216;-79
2023/01/28 06:26:45;;;;;;;10.17;6.53;;;;;;;1.08;100.00;98881.19;5032866;28;20217;-79
2023/01/28 06:29:12;;;;;;;10.57;7.47;;;;;;;1.06;100.00;98882.94;5032546;28;20250;-78
2023/01/28 06:31:38;;;;;;;9.67;7.40;;;;;;;1.03;100.00;98883.03;5032682;28;20205;-79
2023/01/28 06:34:05;;;;;;;13.63;6.87;;;;;;;1.06;100.00;98898.56;5032672;28;20694;-79
2023/01/28 06:36:31;;;;;;;10.03;7.33;;;;;;;1.11;100.00;98894.13;5032829;28;20233;-79
2023/01/28 06:38:59;;;;;;;10.57;7.10;;;;;;;1.00;100.00;98893.47;5032543;28;20326;-79
2023/01/28 06:41:26;;;;;;;8.90;6.53;;;;;;;1.02;100.00;98896.94;5032707;28;20592;-79
2023/01/28 06:43:52;;;;;;;11.30;7.07;;;;;;;1.00;100.00;98903.91;5032651;28;20331;-79
2023/01/28 06:46:18;;;;;;;9.53;6.40;;;;;;;0.94;100.00;98903.16;5032515;28;20205;-78
2023/01/28 06:48:45;;;;;;;10.53;7.03;;;;;;;0.92;100.00;98913.59;5032255;28;20239;-77
2023/01/28 06:51:11;;;;;;;11.37;7.97;;;;;;;1.00;100.00;98913.47;5032259;28;20702;-78
2023/01/28 06:53:38;;;;;;;10.57;6.83;;;;;;;1.00;100.00;98913.47;5032552;28;20212;-78
2023/01/28 06:56:07;;;;;;;11.07;7.40;;;;;;;0.93;100.00;98912.72;5032198;28;20721;-78
2023/01/28 06:58:33;;;;;;;11.13;7.60;;;;;;;0.93;100.00;98928.31;5032317;28;20231;-78
2023/01/28 07:01:00;;;;;;;10.70;7.20;;;;;;;0.88;100.00;98919.78;5032001;28;20675;-78
2023/01/28 07:03:27;;;;;;;11.57;7.40;;;;;;;0.97;100.00;98927.38;5032176;28;20209;-78
2023/01/28 07:05:53;;;;;;;8.60;6.97;;;;;;;0.99;100.00;98933.41;5032147;28;20215;-79
2023/01/28 07:08:20;;;;;;;10.17;7.13;;;;;;;1.03;100.00;98927.28;5032393;28;20605;-78
2023/01/28 07:10:48;;;;;;;10.77;7.43;;;;;;;1.02;100.00;98922.97;5032003;28;20247;-78
2023/01/28 07:13:15;;;;;;;10.73;7.30;;;;;;;1.00;100.00;98929.91;5032162;28;20208;-77
2023/01/28 07:15:42;;;;;;;11.17;7.53;;;;;;;0.98;100.00;98926.50;5032087;28;20212;-79
2023/01/28 07:18:08;;;;;;;11.40;7.80;;;;;;;1.01;100.00;98936.88;5032319;28;20229;-80
2023/01/28 07:20:35;;;;;;;10.53;7.33;;;;;;;1.01;100.00;98941.19;5031822;28;20219;-80
2023/01/28 07:23:01;;;;;;;11.83;7.63;;;;;;;1.06;100.00;98941.97;5031999;28;20216;-81
2023/01/28 07:25:28;;;;;;;12.50;8.00;;;;;;;1.00;100.00;98937.72;5031707;28;20209;-78
2023/01/28 07:27:54;;;;;;;11.03;7.60;;;;;;;1.08;100.00;98938.47;5031797;28;20595;-75
2023/01/28 07:30:23;;;;;;;11.40;8.03;;;;;;;1.09;100.00;98937.56;5031694;28;20213;-78
2023/01/28 07:32:53;;;;;;;11.63;7.80;;;;;;;1.18;100.00;98941.75;5031730;28;20212;-79
2023/01/28 07:35:19;;;;;;;11.60;7.50;;;;;;;1.10;100.00;98941.03;5031832;28;20205;-78
2023/01/28 07:37:51;;;;;;;12.30;7.30;;;;;;;1.07;100.00;98941.97;5031444;28;20331;-78
2023/01/28 07:40:18;;;;;;;11.37;8.07;;;;;;;1.12;100.00;98949.69;5031375;28;20417;-79
2023/01/28 07:42:44;;;;;;;11.43;7.27;;;;;;;1.09;100.00;98940.19;5031637;28;20213;-82
2023/01/28 07:45:11;;;;;;;9.87;6.80;;;;;;;1.11;100.00;98954.00;5031952;28;20212;-81
2023/01/28 07:47:39;;;;;;;10.83;7.57;;;;;;;1.13;100.00;98954.84;5031503;28;20314;-78
2023/01/28 07:50:06;;;;;;;12.43;8.40;;;;;;;1.20;100.00;98948.63;5031526;28;20413;-78
2023/01/28 07:52:37;;;;;;;11.00;7.80;;;;;;;1.16;100.00;98956.53;5031595;28;20213;-78
2023/01/28 07:55:04;;;;;;;13.10;7.37;;;;;;;1.25;100.00;98952.03;5031410;28;20212;-78
2023/01/28 07:57:31;;;;;;;10.27;7.23;;;;;;;1.26;100.00;98961.53;5031565;28;20237;-78
2023/01/28 07:59:57;;;;;;;10.20;6.87;;;;;;;1.25;100.00;98962.44;5031264;28;20219;-78
2023/01/28 08:02:24;;;;;;;10.73;7.03;;;;;;;1.26;100.00;98955.47;5031386;28;20208;-78
2023/01/28 08:04:52;;;;;;;12.73;8.53;;;;;;;1.31;100.00;98966.66;5031344;28;20208;-78
2023/01/28 08:07:18;;;;;;;11.27;7.60;;;;;;;1.27;100.00;98965.84;5031294;28;20237;-78
2023/01/28 08:09:45;;;;;;;10.70;7.30;;;;;;;1.41;100.00;98966.44;5030937;28;20232;-78
2023/01/28 08:12:11;;;;;;;10.87;7.50;;;;;;;1.37;100.00;98961.31;5031442;28;20218;-79
2023/01/28 08:14:38;;;;;;;11.77;8.48;;;;;;;1.40;100.00;98962.13;5029246;28;20435;-75
2023/01/28 08:17:04;;;;;;;10.23;7.87;;;;;;;1.48;100.00;98970.63;5032200;28;20232;-79
2023/01/28 08:19:30;;;;;;;11.47;7.90;;;;;;;1.55;100.00;98971.38;5034742;28;20229;-79
2023/01/28 08:21:58;;;;;;;10.60;7.30;;;;;;;1.56;100.00;98973.97;5035050;28;20211;-79
2023/01/28 08:24:25;;;;;;;11.90;8.20;;;;;;;1.55;100.00;98969.66;5035516;28;20213;-78
2023/01/28 08:26:51;;;;;;;11.20;7.93;;;;;;;1.62;100.00;98972.97;5035305;28;20208;-79
2023/01/28 08:29:18;;;;;;;10.13;7.30;;;;;;;1.61;100.00;98982.50;5034739;28;20233;-78
2023/01/28 08:31:44;;;;;;;11.33;7.70;;;;;;;1.63;100.00;98979.88;5035063;28;20209;-78
2023/01/28 08:34:11;;;;;;;11.53;8.17;;;;;;;1.65;100.00;98973.75;5035122;28;20584;-78
2023/01/28 08:36:37;;;;;;;12.10;8.30;;;;;;;1.68;100.00;98978.06;5034855;28;20251;-78
2023/01/28 08:39:05;;;;;;;11.70;7.80;;;;;;;1.79;100.00;98981.28;5035096;28;20476;-78
2023/01/28 08:41:31;;;;;;;10.70;7.87;;;;;;;1.82;100.00;98976.88;5034879;28;20220;-78
2023/01/28 08:43:59;;;;;;;10.37;7.03;;;;;;;1.80;100.00;98972.59;5035004;28;20582;-78
2023/01/28 08:46:25;;;;;;;12.50;8.70;;;;;;;1.85;100.00;98974.19;5034736;28;20205;-79
2023/01/28 08:48:52;;;;;;;12.40;8.00;;;;;;;1.81;100.00;98969.94;5034277;28;20240;-79
2023/01/28 08:51:18;;;;;;;11.67;8.37;;;;;;;1.86;100.00;98973.31;5034580;28;20220;-78
2023/01/28 08:53:45;;;;;;;12.13;8.13;;;;;;;1.88;100.00;98981.09;5034583;28;20217;-79
2023/01/28 08:56:13;;;;;;;13.80;9.33;;;;;;;1.94;100.00;98975.75;5034758;28;20210;-79
2023/01/28 08:58:40;;;;;;;13.77;8.60;;;;;;;1.93;100.00;98964.47;5034387;28;20239;-80
2023/01/28 09:01:07;;;;;;;13.20;8.80;;;;;;;1.98;100.00;98969.59;5034323;28;20217;-76
2023/01/28 09:03:34;;;;;;;13.43;9.53;;;;;;;1.98;100.00;98966.97;5034448;28;20216;-78
2023/01/28 09:06:01;;;;;;;13.67;8.97;;;;;;;2.04;100.00;98972.94;5034321;28;20703;-78
2023/01/28 09:08:28;;;;;;;14.07;9.40;;;;;;;2.11;100.00;98979.72;5034278;28;20275;-78
2023/01/28 09:10:56;;;;;;;12.77;8.87;;;;;;;2.14;100.00;98976.19;5034031;28;20224;-78
2023/01/28 09:13:24;;;;;;;13.50;8.70;;;;;;;2.17;100.00;98974.34;5034240;28;20208;-76
2023/01/28 09:15:51;;;;;;;14.07;8.87;;;;;;;2.18;100.00;98980.41;5034261;28;20209;-77
2023/01/28 09:18:18;;;;;;;13.85;9.70;;;;;;;2.25;100.00;98975.03;5032413;28;20489;-78
2023/01/28 09:20:45;;;;;;;12.83;9.07;;;;;;;2.27;100.00;98991.50;5032128;28;20295;-78
2023/01/28 09:23:12;;;;;;;13.47;8.57;;;;;;;2.30;100.00;98991.44;5033176;28;20296;-78
2023/01/28 09:25:39;;;;;;;13.67;8.93;;;;;;;2.40;100.00;98982.50;5033269;28;20204;-78
2023/01/28 09:28:06;;;;;;;13.53;9.20;;;;;;;2.41;100.00;98984.22;5029688;28;20228;-78
2023/01/28 09:30:35;;;;;;;12.37;9.03;;;;;;;2.35;100.00;98984.38;5011588;28;20703;-78
2023/01/28 09:33:01;;;;;;;13.70;9.53;;;;;;;2.43;100.00;98985.03;5013263;28;20634;-78
2023/01/28 09:35:28;;;;;;;12.93;8.60;;;;;;;2.48;100.00;98984.94;5013536;28;20300;-78
2023/01/28 09:37:57;;;;;;;17.47;10.23;;;;;;;2.52;100.00;98991.78;5012996;28;20233;-78
2023/01/28 09:40:31;;;;;;;13.97;9.40;;;;;;;2.52;100.00;98982.19;5012828;28;20296;-78
2023/01/28 09:43:18;;;;;;;12.67;8.50;;;;;;;2.42;99.85;98985.94;5013254;28;20659;-78
2023/01/28 09:45:48;;;;;;;15.27;9.77;;;;;;;2.40;100.00;98992.09;5013154;28;20216;-78
2023/01/28 09:48:20;;;;;;;12.30;8.93;;;;;;;2.34;100.00;99002.66;5012805;28;20245;-78
2023/01/28 09:50:50;;;;;;;13.37;8.90;;;;;;;2.42;100.00;98998.97;5013073;28;20296;-77
2023/01/28 09:53:21;;;;;;;13.57;9.07;;;;;;;2.42;100.00;99000.72;5013198;28;20216;-78
2023/01/28 09:55:53;;;;;;;12.77;8.77;;;;;;;2.40;100.00;99003.34;5013123;28;20224;-78
2023/01/28 09:58:19;;;;;;;13.27;8.77;;;;;;;2.42;100.00;99004.19;5013074;28;20242;-78
2023/01/28 10:00:54;;;;;;;15.00;9.93;;;;;;;2.45;100.00;99014.56;5012851;28;20553;-77
2023/01/28 10:03:45;;;;;;;14.30;9.93;;;;;;;2.40;100.00;99013.78;5013393;28;20227;-77
2023/01/28 10:06:22;;;;;;;13.70;9.27;;;;;;;2.37;100.00;99019.09;5012955;28;20224;-76
2023/01/28 10:09:21;;;;;;;16.83;9.93;;;;;;;2.35;100.00;99013.06;5012619;28;20233;-77
2023/01/28 10:12:01;;;;;;;15.03;10.03;;;;;;;2.37;100.00;99010.41;5012887;28;20217;-77
2023/01/28 10:14:39;;;;;;;14.43;9.30;;;;;;;2.31;100.00;99008.81;5012741;28;20217;-76
2023/01/28 10:17:14;;;;;;;16.93;10.23;;;;;;;2.28;100.00;99008.00;5012603;28;20232;-77
2023/01/28 10:19:44;;;;;;;13.10;9.50;;;;;;;2.33;100.00;99007.00;5012202;28;20730;-79
2023/01/28 10:22:15;;;;;;;15.40;9.83;;;;;;;2.28;100.00;99003.63;5012655;28;20213;-77
2023/01/28 10:24:48;;;;;;;17.70;10.33;;;;;;;2.29;100.00;99005.38;5012982;28;20221;-76
2023/01/28 10:27:17;;;;;;;16.07;9.90;;;;;;;2.28;100.00;98998.41;5012381;28;20210;-77
2023/01/28 10:29:45;;;;;;;17.23;10.07;;;;;;;2.34;100.00;99000.88;5011035;28;20226;-78
2023/01/28 10:32:22;;;;;;;13.57;9.20;;;;;;;2.40;100.00;98992.09;5011766;28;20642;-76
2023/01/28 10:34:49;;;;;;;13.63;9.53;;;;;;;2.36;100.00;98991.31;5012144;28;20229;-78
2023/01/28 10:37:16;;;;;;;16.47;10.30;;;;;;;2.41;100.00;98994.66;5012250;28;20237;-78
2023/01/28 10:39:44;;;;;;;15.33;9.90;;;;;;;2.38;100.00;98994.72;5010694;28;20244;-79
2023/01/28 10:42:20;;;;;;;16.13;10.10;;;;;;;2.39;100.00;98992.97;5012122;28;20209;-77
2023/01/28 10:44:48;;;;;;;15.97;10.37;;;;;;;2.40;100.00;98989.47;5012271;28;20205;-78
2023/01/28 10:47:25;;;;;;;15.17;9.60;;;;;;;2.45;100.00;98992.84;5012188;28;20209;-77
2023/01/28 10:49:56;;;;;;;14.17;9.37;;;;;;;2.52;100.00;98987.41;5037816;23;20244;-85
2023/01/28 10:52:22;;;;;;;13.77;9.23;;;;;;;2.56;100.00;98991.69;5032013;28;20203;-85
2023/01/28 10:54:59;;;;;;;16.40;10.03;;;;;;;2.65;100.00;98981.03;5031995;28;20208;-85
2023/01/28 10:57:26;;;;;;;14.47;9.57;;;;;;;2.69;100.00;98982.66;5031895;28;20351;-85
2023/01/28 10:59:52;;;;;;;14.73;9.50;;;;;;;2.72;99.10;98971.28;5014688;28;20234;-84
2023/01/28 11:02:35;;;;;;;13.77;9.23;;;;;;;2.82;99.47;98976.22;5012022;28;20256;-85
2023/01/28 11:05:05;;;;;;;13.53;9.70;;;;;;;2.92;99.48;98977.72;5012004;28;20682;-84
2023/01/28 11:07:33;;;;;;;15.63;9.97;;;;;;;3.07;97.84;98972.09;5012067;28;20232;-86
2023/01/28 11:09:59;;;;;;;13.27;9.00;;;;;;;3.11;95.85;98967.66;5011606;28;20229;-86
2023/01/28 11:12:28;;;;;;;14.80;9.73;;;;;;;3.10;95.21;98960.72;5011970;28;20209;-87
2023/01/28 11:14:56;;;;;;;14.80;9.20;;;;;;;3.02;95.27;98992.25;5012011;28;20240;-86
2023/01/28 11:17:24;;;;;;;12.00;8.20;;;;;;;2.97;94.31;98991.53;5011705;28;20300;-85
2023/01/28 11:19:53;;;;;;;17.10;10.00;;;;;;;2.91;94.97;98991.69;5011270;28;20256;-87
2023/01/28 11:22:24;;;;;;;13.97;9.07;;;;;;;2.88;96.26;99002.19;5011787;28;20225;-87
2023/01/28 11:24:51;;;;;;;16.33;9.53;;;;;;;2.83;97.21;99004.06;5011754;28;20217;-86
2023/01/28 11:27:26;;;;;;;16.60;10.00;;;;;;;2.86;97.14;99009.19;5011547;28;20704;-86
2023/01/28 11:29:56;;;;;;;15.80;9.83;;;;;;;2.79;97.20;99014.59;5011107;28;20602;-86
2023/01/28 11:32:26;;;;;;;14.87;9.97;;;;;;;2.69;97.31;99019.19;5021681;28;20209;-85
2023/01/28 11:34:57;;;;;;;15.67;9.80;;;;;;;2.64;97.58;99015.00;5031187;28;20606;-85
2023/01/28 11:37:25;;;;;;;17.20;10.37;;;;;;;2.51;98.56;99017.00;5030988;28;20290;-85
2023/01/28 11:40:01;;;;;;;15.40;9.77;;;;;;;2.46;99.29;99015.41;5030484;28;20345;-85
2023/01/28 11:42:28;;;;;;;14.13;9.13;;;;;;;2.38;100.00;99019.97;5031016;28;20307;-85
2023/01/28 11:44:54;;;;;;;17.20;10.70;;;;;;;2.44;100.00;99019.81;5031167;28;20208;-85
2023/01/28 11:47:38;;;;;;;13.90;9.80;;;;;;;2.46;100.00;99012.81;5031103;28;20219;-86
2023/01/28 11:50:16;;;;;;;15.03;9.70;;;;;;;2.49;100.00;99013.59;5030057;28;20247;-85
2023/01/28 11:52:57;;;;;;;16.10;10.23;;;;;;;2.45;99.73;99011.94;5030728;28;20231;-86
2023/01/28 11:55:41;;;;;;;14.67;9.37;;;;;;;2.37;99.85;99019.09;5031031;28;20212;-85
2023/01/28 11:58:20;;;;;;;17.93;9.90;;;;;;;2.31;98.61;99014.00;5030524;28;20239;-86
2023/01/28 12:00:55;;;;;;;15.57;9.20;;;;;;;2.35;98.21;99010.47;5029977;28;20686;-86
2023/01/28 12:03:39;;;;;;;16.47;10.70;;;;;;;2.31;99.40;99011.41;5030403;28;20222;-84
2023/01/28 12:06:22;;;;;;;16.40;10.30;;;;;;;2.34;99.05;99010.47;5030532;28;20215;-86
2023/01/28 12:09:05;;;;;;;16.17;9.80;;;;;;;2.33;98.37;99004.41;5030619;28;20236;-85